createdAt,value
2019-03-29T15:27:27.591Z,3.95
2019-03-29T15:29:56.038Z,5.53
2019-03-29T15:32:24.574Z,4.55
2019-03-29T15:34:53.057Z,5.25
2019-03-29T15:37:21.497Z,4.97
2019-03-29T15:39:49.917Z,4.85
2019-03-29T15:42:20.538Z,6.90
2019-03-29T15:44:48.607Z,9.23
2019-03-29T15:47:17.125Z,4.22
2019-03-29T15:49:55.696Z,4.35
2019-03-29T15:52:15.734Z,4.80
2019-03-29T15:54:44.221Z,4.75
2019-03-29T15:57:12.694Z,4.80
2019-03-29T15:59:41.173Z,3.30
2019-03-29T16:02:09.651Z,3.87
2019-03-29T16:04:38.084Z,6.00
2019-03-29T16:07:06.630Z,4.33
2019-03-29T16:09:36.002Z,4.37
2019-03-29T16:12:04.506Z,4.45
2019-03-29T16:14:32.970Z,3.83
2019-03-29T16:17:02.142Z,4.45
2019-03-29T16:19:33.651Z,6.78
2019-03-29T16:22:02.071Z,3.87
2019-03-29T16:24:30.604Z,8.38
2019-03-29T16:26:59.609Z,6.85
2019-03-29T16:29:28.103Z,9.63
2019-03-29T16:31:56.710Z,6.05
2019-03-29T16:34:25.611Z,7.85
2019-03-29T16:36:54.142Z,4.95
2019-03-29T16:39:22.565Z,6.62
2019-03-29T16:41:51.038Z,4.80
2019-03-29T16:44:19.489Z,4.83
2019-03-29T16:46:47.965Z,5.97
2019-03-29T16:49:16.413Z,7.40
2019-03-29T16:51:44.863Z,8.00
2019-03-29T16:54:13.286Z,9.40
2019-03-29T16:56:41.732Z,6.55
2019-03-29T16:59:10.231Z,6.45
2019-03-29T17:01:38.673Z,5.83
2019-03-29T17:04:07.090Z,6.15
2019-03-29T17:06:35.532Z,7.35
2019-03-29T17:09:06.284Z,6.45
2019-03-29T17:11:34.739Z,5.72
2019-03-29T17:14:03.162Z,6.80
2019-03-29T17:16:32.609Z,4.72
2019-03-29T17:19:01.039Z,9.38
2019-03-29T17:21:30.431Z,6.08
2019-03-29T17:23:59.540Z,10.05
2019-03-29T17:26:28.275Z,13.28
2019-03-29T17:28:56.725Z,13.15
2019-03-29T17:31:25.948Z,9.28
2019-03-29T17:33:54.602Z,8.15
2019-03-29T17:36:23.209Z,10.18
2019-03-29T17:38:51.641Z,9.28
2019-03-29T17:41:20.092Z,9.90
2019-03-29T17:43:48.560Z,10.65
2019-03-29T17:46:17.221Z,10.03
2019-03-29T17:48:45.652Z,10.20
2019-03-29T17:51:14.113Z,10.78
2019-03-29T17:53:42.537Z,11.20
2019-03-29T17:56:11.314Z,24.15
2019-03-29T17:58:39.757Z,27.87
2019-03-29T18:01:08.209Z,23.18
2019-03-29T18:03:36.637Z,14.73
2019-03-29T18:06:05.059Z,8.53
2019-03-29T18:08:33.509Z,7.37
2019-03-29T18:11:01.936Z,12.23
2019-03-29T18:13:30.384Z,8.68
2019-03-29T18:15:58.804Z,6.87
2019-03-29T18:18:27.254Z,8.90
2019-03-29T18:20:55.755Z,9.43
2019-03-29T18:23:25.039Z,8.78
2019-03-29T18:25:53.655Z,10.18
2019-03-29T18:28:22.136Z,10.63
2019-03-29T18:30:50.525Z,9.53
2019-03-29T18:33:19.621Z,9.53
2019-03-29T18:35:48.043Z,15.00
2019-03-29T18:38:16.490Z,12.90
2019-03-29T18:40:44.977Z,9.50
2019-03-29T18:43:13.473Z,8.50
2019-03-29T18:45:41.999Z,15.32
2019-03-29T18:48:10.448Z,11.18
2019-03-29T18:50:38.975Z,12.03
2019-03-29T18:53:07.775Z,11.60
2019-03-29T18:55:36.223Z,10.60
2019-03-29T18:58:05.956Z,11.50
2019-03-29T19:00:34.917Z,16.05
2019-03-29T19:03:04.389Z,12.63
2019-03-29T19:05:33.966Z,8.85
2019-03-29T19:08:02.635Z,10.45
2019-03-29T19:10:31.069Z,8.80
2019-03-29T19:12:59.625Z,10.35
2019-03-29T19:15:28.053Z,11.43
2019-03-29T19:17:56.502Z,9.93
2019-03-29T19:20:27.907Z,9.40
2019-03-29T19:22:55.299Z,10.30
2019-03-29T19:25:23.715Z,11.18
2019-03-29T19:27:52.374Z,14.30
2019-03-29T19:30:20.790Z,10.80
2019-03-29T19:32:49.280Z,11.25
2019-03-29T19:35:17.690Z,23.40
2019-03-29T19:37:46.137Z,12.10
2019-03-29T19:40:14.836Z,9.78
2019-03-29T19:42:43.281Z,14.58
2019-03-29T19:45:11.910Z,14.28
2019-03-29T19:47:40.361Z,50.17
2019-03-29T19:50:08.802Z,21.77
2019-03-29T19:52:37.457Z,14.25
2019-03-29T19:55:05.947Z,15.88
2019-03-29T19:57:34.466Z,13.50
2019-03-29T20:02:43.330Z,12.63
2019-03-29T20:05:17.590Z,13.70
2019-03-29T20:07:51.789Z,14.80
2019-03-29T20:10:22.358Z,13.32
2019-03-29T20:12:57.026Z,13.30
2019-03-29T20:15:32.852Z,16.12
2019-03-29T20:18:03.121Z,14.70
2019-03-29T20:20:35.810Z,13.88
2019-03-29T20:23:09.089Z,13.90
2019-03-29T20:25:39.128Z,12.70
2019-03-29T20:28:14.331Z,15.32
2019-03-29T20:30:42.240Z,16.67
2019-03-29T20:33:13.468Z,20.17
2019-03-29T20:35:42.116Z,16.37
2019-03-29T20:38:14.007Z,14.13
2019-03-29T20:40:48.210Z,13.32
2019-03-29T20:43:21.474Z,16.87
2019-03-29T20:45:49.861Z,18.23
2019-03-29T20:48:18.294Z,16.00
2019-03-29T20:50:46.749Z,17.52
2019-03-29T20:53:15.232Z,14.75
2019-03-29T20:55:43.611Z,15.25
2019-03-29T20:58:12.299Z,14.63
2019-03-29T21:00:40.685Z,13.90
2019-03-29T21:03:11.916Z,13.70
2019-03-29T21:05:41.985Z,17.23
2019-03-29T21:08:11.687Z,11.75
2019-03-29T21:10:55.055Z,17.75
2019-03-29T21:15:45.000Z,15.28
2019-03-29T21:18:13.528Z,12.03
2019-03-29T21:20:41.984Z,14.10
2019-03-29T21:23:10.625Z,13.10
2019-03-29T21:25:39.048Z,18.70
2019-03-29T21:28:07.520Z,12.30
2019-03-29T21:30:37.123Z,18.23
2019-03-29T21:33:05.516Z,12.00
2019-03-29T21:35:33.974Z,14.78
2019-03-29T21:38:02.422Z,15.55
2019-03-29T21:40:30.836Z,15.78
2019-03-29T21:43:01.739Z,14.63
2019-03-29T21:45:29.398Z,12.82
2019-03-29T21:48:04.843Z,14.10
2019-03-29T21:50:28.183Z,12.95
2019-03-29T21:52:56.644Z,14.35
2019-03-29T21:55:25.191Z,16.32
2019-03-29T21:57:53.647Z,13.58
2019-03-29T22:00:22.057Z,16.00
2019-03-29T22:02:50.515Z,15.08
2019-03-29T22:05:18.969Z,14.40
2019-03-29T22:07:47.389Z,13.38
2019-03-29T22:10:15.840Z,13.80
2019-03-29T22:12:44.259Z,14.15
2019-03-29T22:15:12.790Z,12.50
2019-03-29T22:17:41.210Z,13.88
2019-03-29T22:20:10.119Z,13.35
2019-03-29T22:22:38.506Z,14.50
2019-03-29T22:25:09.940Z,15.40
2019-03-29T22:27:38.425Z,14.10
2019-03-29T22:30:08.984Z,24.63
2019-03-29T22:32:37.455Z,18.80
2019-03-29T22:35:07.199Z,10.72
2019-03-29T22:37:35.682Z,12.53
2019-03-29T22:40:06.272Z,12.45
2019-03-29T22:42:34.695Z,11.43
2019-03-29T22:45:03.425Z,12.85
2019-03-29T22:47:31.944Z,14.07
2019-03-29T22:50:00.393Z,13.65
2019-03-29T22:52:28.826Z,11.35
2019-03-29T22:54:57.257Z,13.20
2019-03-29T22:57:45.112Z,12.15
2019-03-29T23:00:27.233Z,11.93
2019-03-29T23:02:55.649Z,12.98
2019-03-29T23:05:24.104Z,15.28
2019-03-29T23:07:52.714Z,13.10
2019-03-29T23:10:21.163Z,14.93
2019-03-29T23:12:49.777Z,12.98
2019-03-29T23:15:18.235Z,14.80
2019-03-29T23:17:46.658Z,12.43
2019-03-29T23:20:15.110Z,13.40
2019-03-29T23:22:43.562Z,12.35
2019-03-29T23:25:12.016Z,11.80
2019-03-29T23:27:40.521Z,12.23
2019-03-29T23:30:09.844Z,14.07
2019-03-29T23:32:38.340Z,20.68
2019-03-29T23:35:07.350Z,14.55
2019-03-29T23:37:35.854Z,13.98
2019-03-29T23:40:05.390Z,14.85
2019-03-29T23:42:33.921Z,13.43
2019-03-29T23:45:02.379Z,14.15
2019-03-29T23:47:30.858Z,13.62
2019-03-29T23:49:59.406Z,12.45
2019-03-29T23:52:27.855Z,12.68
2019-03-29T23:54:56.309Z,14.38
2019-03-29T23:57:24.837Z,13.35
2019-03-29T23:59:53.395Z,15.98
